createdAt,value
2023-04-16T00:00:46.556Z,8.80
2023-04-16T00:03:35.267Z,8.80
2023-04-16T00:06:04.483Z,8.78
2023-04-16T00:08:37.484Z,8.75
2023-04-16T00:11:06.363Z,8.73
2023-04-16T00:13:35.856Z,8.65
2023-04-16T00:16:08.335Z,8.62
2023-04-16T00:18:38.547Z,8.57
2023-04-16T00:21:15.234Z,8.50
2023-04-16T00:23:53.145Z,8.42
2023-04-16T00:26:44.438Z,8.37
2023-04-16T00:29:13.552Z,8.36
2023-04-16T00:31:44.704Z,8.31
2023-04-16T00:34:16.313Z,8.22
2023-04-16T00:36:52.616Z,8.11
2023-04-16T00:39:23.744Z,8.00
2023-04-16T00:41:52.651Z,7.92
2023-04-16T00:44:21.426Z,7.85
2023-04-16T00:46:56.769Z,7.79
2023-04-16T00:49:28.267Z,7.74
2023-04-16T00:52:04.284Z,7.71
2023-04-16T00:54:38.899Z,7.63
2023-04-16T00:57:10.359Z,7.52
2023-04-16T00:59:41.906Z,7.41
2023-04-16T01:02:17.388Z,7.31
2023-04-16T01:04:52.185Z,7.20
2023-04-16T01:07:20.970Z,7.08
2023-04-16T01:09:49.756Z,6.95
2023-04-16T01:12:28.587Z,6.84
2023-04-16T01:15:13.363Z,6.75
2023-04-16T01:17:51.418Z,6.68
2023-04-16T01:20:26.291Z,6.66
2023-04-16T01:23:02.565Z,6.69
2023-04-16T01:25:31.821Z,6.74
2023-04-16T01:28:03.100Z,6.78
2023-04-16T01:30:31.995Z,6.82
2023-04-16T01:33:14.715Z,6.88
2023-04-16T01:35:46.461Z,6.95
2023-04-16T01:38:17.500Z,6.98
2023-04-16T01:40:59.655Z,7.05
2023-04-16T01:43:30.854Z,7.08
2023-04-16T01:46:15.840Z,7.10
2023-04-16T01:48:45.277Z,7.12
2023-04-16T01:51:17.187Z,7.14
2023-04-16T01:53:47.089Z,7.15
2023-04-16T01:56:25.182Z,7.16
2023-04-16T01:58:54.019Z,7.18
2023-04-16T02:01:32.934Z,7.16
2023-04-16T02:04:06.751Z,7.16
2023-04-16T02:06:35.322Z,7.15
2023-04-16T02:09:15.682Z,7.16
2023-04-16T02:11:46.959Z,7.13
2023-04-16T02:14:21.331Z,7.12
2023-04-16T02:16:55.624Z,7.12
2023-04-16T02:19:44.517Z,7.14
2023-04-16T02:22:14.933Z,7.17
2023-04-16T02:24:51.508Z,7.22
2023-04-16T02:27:35.047Z,7.26
2023-04-16T02:30:13.245Z,7.27
2023-04-16T02:32:51.628Z,7.30
2023-04-16T02:35:23.411Z,7.33
2023-04-16T02:37:54.457Z,7.34
2023-04-16T02:40:26.932Z,7.35
2023-04-16T02:43:00.648Z,7.35
2023-04-16T02:45:37.767Z,7.35
2023-04-16T02:48:10.192Z,7.33
2023-04-16T02:50:39.099Z,7.30
2023-04-16T02:53:14.018Z,7.30
2023-04-16T02:55:52.743Z,7.31
2023-04-16T02:58:26.677Z,7.32
2023-04-16T03:01:00.739Z,7.32
2023-04-16T03:03:35.053Z,7.30
2023-04-16T03:06:10.426Z,7.30
2023-04-16T03:08:44.848Z,7.26
2023-04-16T03:11:22.227Z,7.23
2023-04-16T03:14:19.033Z,7.18
2023-04-16T03:16:47.992Z,7.12
2023-04-16T03:19:22.810Z,7.10
2023-04-16T03:22:21.901Z,7.08
2023-04-16T03:24:56.727Z,7.06
2023-04-16T03:27:34.640Z,7.06
2023-04-16T03:30:20.930Z,7.06
2023-04-16T03:32:52.330Z,7.06
2023-04-16T03:35:28.440Z,7.09
2023-04-16T03:37:57.353Z,7.15
2023-04-16T03:40:32.053Z,7.23
2023-04-16T03:43:04.359Z,7.31
2023-04-16T03:45:45.308Z,7.30
2023-04-16T03:48:21.825Z,7.44
2023-04-16T03:50:50.504Z,7.45
2023-04-16T03:53:26.213Z,7.43
2023-04-16T03:55:57.776Z,7.40
2023-04-16T03:58:26.766Z,7.38
2023-04-16T04:00:58.722Z,7.34
2023-04-16T04:03:34.196Z,7.27
2023-04-16T04:06:15.890Z,7.24
2023-04-16T04:08:50.183Z,7.24
2023-04-16T04:11:22.150Z,7.25
2023-04-16T04:13:53.699Z,7.29
2023-04-16T04:16:30.011Z,7.38
2023-04-16T04:19:04.669Z,7.45
2023-04-16T04:21:33.573Z,7.47
2023-04-16T04:24:04.921Z,7.43
2023-04-16T04:26:39.443Z,7.38
2023-04-16T04:29:17.046Z,7.36
2023-04-16T04:31:48.554Z,7.39
2023-04-16T04:34:27.943Z,7.45
2023-04-16T04:36:59.992Z,7.54
2023-04-16T04:39:32.673Z,7.62
2023-04-16T04:42:03.453Z,7.71
2023-04-16T04:44:37.732Z,7.76
2023-04-16T04:47:15.059Z,7.76
2023-04-16T04:49:53.113Z,7.72
2023-04-16T04:52:22.316Z,7.69
2023-04-16T04:55:05.956Z,7.66
2023-04-16T04:57:46.616Z,7.67
2023-04-16T05:00:38.664Z,7.73
2023-04-16T05:03:12.531Z,7.78
2023-04-16T05:05:44.031Z,7.85
2023-04-16T05:08:15.989Z,7.85
2023-04-16T05:10:47.381Z,7.79
2023-04-16T05:13:36.292Z,7.75
2023-04-16T05:16:08.265Z,7.75
2023-04-16T05:18:45.691Z,7.75
2023-04-16T05:21:19.768Z,7.70
2023-04-16T05:23:53.770Z,7.67
2023-04-16T05:26:38.491Z,7.65
2023-04-16T05:29:10.912Z,7.62
2023-04-16T05:31:58.751Z,7.61
2023-04-16T05:34:32.953Z,7.59
2023-04-16T05:37:04.217Z,7.59
2023-04-16T05:39:35.970Z,7.58
2023-04-16T05:42:10.688Z,7.59
2023-04-16T05:44:40.393Z,7.63
2023-04-16T05:47:25.836Z,7.68
2023-04-16T05:50:20.357Z,7.72
2023-04-16T05:52:57.047Z,7.74
2023-04-16T05:55:37.023Z,7.77
2023-04-16T05:58:30.232Z,7.77
2023-04-16T06:01:07.844Z,7.78
2023-04-16T06:04:02.343Z,7.73
2023-04-16T06:06:31.742Z,7.68
2023-04-16T06:09:19.373Z,7.64
2023-04-16T06:11:53.293Z,7.59
2023-04-16T06:14:24.633Z,7.57
2023-04-16T06:16:59.558Z,7.59
2023-04-16T06:19:37.468Z,7.63
2023-04-16T06:22:10.242Z,7.68
2023-04-16T06:24:39.575Z,7.75
2023-04-16T06:27:14.784Z,7.76
2023-04-16T06:29:58.619Z,7.89
2023-04-16T06:32:35.264Z,7.97
2023-04-16T06:35:15.186Z,8.06
2023-04-16T06:37:51.208Z,8.19
2023-04-16T06:40:43.538Z,8.32
2023-04-16T06:43:16.414Z,8.42
2023-04-16T06:45:53.822Z,8.53
2023-04-16T06:48:37.749Z,8.70
2023-04-16T06:51:09.638Z,8.87
2023-04-16T06:53:42.662Z,8.97
2023-04-16T06:56:14.880Z,9.05
2023-04-16T06:59:06.502Z,9.12
2023-04-16T07:01:38.787Z,9.19
2023-04-16T07:04:16.738Z,9.14
2023-04-16T07:06:52.522Z,9.15
2023-04-16T07:09:27.254Z,9.18
2023-04-16T07:12:09.523Z,9.22
2023-04-16T07:14:45.056Z,9.26
2023-04-16T07:17:20.235Z,9.32
2023-04-16T07:19:59.485Z,9.38
2023-04-16T07:22:36.664Z,9.46
2023-04-16T07:25:15.173Z,9.57
2023-04-16T07:27:52.684Z,9.67
2023-04-16T07:30:24.055Z,9.76
2023-04-16T07:32:56.790Z,9.85
2023-04-16T07:35:31.636Z,9.92
2023-04-16T07:38:03.209Z,9.94
2023-04-16T07:40:52.453Z,9.93
2023-04-16T07:43:21.654Z,9.98
2023-04-16T07:45:53.600Z,10.08
2023-04-16T07:48:28.773Z,10.18
2023-04-16T07:50:58.677Z,10.24
2023-04-16T07:53:28.051Z,10.31
2023-04-16T07:56:00.559Z,10.37
2023-04-16T07:58:29.533Z,10.43
2023-04-16T08:01:01.834Z,10.51
2023-04-16T08:03:32.270Z,10.59
2023-04-16T08:06:01.574Z,10.73
2023-04-16T08:08:31.059Z,10.84
2023-04-16T08:11:04.126Z,10.87
2023-04-16T08:13:33.902Z,10.95
2023-04-16T08:16:06.762Z,11.06
2023-04-16T08:18:35.924Z,11.15
2023-04-16T08:21:05.019Z,11.18
2023-04-16T08:23:37.092Z,11.21
2023-04-16T08:26:06.587Z,11.31
2023-04-16T08:28:36.098Z,11.39
2023-04-16T08:31:11.968Z,11.44
2023-04-16T08:33:41.609Z,11.37
2023-04-16T08:36:11.098Z,11.36
2023-04-16T08:38:40.733Z,11.33
2023-04-16T08:41:13.448Z,11.37
2023-04-16T08:43:49.204Z,11.43
2023-04-16T08:46:23.361Z,11.51
2023-04-16T08:48:56.543Z,11.51
2023-04-16T08:51:31.707Z,11.53
2023-04-16T08:54:05.001Z,11.61
2023-04-16T08:56:43.080Z,11.70
2023-04-16T08:59:12.910Z,11.81
2023-04-16T09:01:42.294Z,11.84
2023-04-16T09:04:11.753Z,11.87
2023-04-16T09:06:50.965Z,11.92
2023-04-16T09:09:22.167Z,12.08
2023-04-16T09:11:55.136Z,12.30
2023-04-16T09:14:24.276Z,12.47
2023-04-16T09:16:55.994Z,12.56
2023-04-16T09:19:27.587Z,12.69
2023-04-16T09:21:57.037Z,12.81
2023-04-16T09:24:47.346Z,12.95
2023-04-16T09:27:17.482Z,13.08
2023-04-16T09:29:52.319Z,13.25
2023-04-16T09:32:30.341Z,13.44
2023-04-16T09:35:01.617Z,13.67
2023-04-16T09:37:31.978Z,13.87
2023-04-16T09:40:04.841Z,14.08
2023-04-16T09:42:37.599Z,14.30
2023-04-16T09:45:09.005Z,14.43
2023-04-16T09:47:43.977Z,14.59
2023-04-16T09:50:18.609Z,14.75
2023-04-16T09:52:53.785Z,14.91
2023-04-16T09:55:28.119Z,15.12
2023-04-16T09:58:03.044Z,15.24
2023-04-16T10:00:31.945Z,15.30
2023-04-16T10:03:07.803Z,15.37
2023-04-16T10:05:38.836Z,15.51
2023-04-16T10:08:17.643Z,15.67
2023-04-16T10:10:46.727Z,15.81
2023-04-16T10:13:17.879Z,15.90
2023-04-16T10:15:47.034Z,16.00
2023-04-16T10:18:16.803Z,16.11
2023-04-16T10:20:46.309Z,16.20
2023-04-16T10:23:16.358Z,16.29
2023-04-16T10:25:57.542Z,16.39
2023-04-16T10:28:27.737Z,16.46
2023-04-16T10:30:59.034Z,16.40
2023-04-16T10:33:33.281Z,16.46
2023-04-16T10:36:23.352Z,16.47
2023-04-16T10:38:54.121Z,16.47
2023-04-16T10:41:23.500Z,16.56
2023-04-16T10:43:52.908Z,16.62
2023-04-16T10:46:23.609Z,16.71
2023-04-16T10:49:00.208Z,16.86
2023-04-16T10:51:28.931Z,17.01
2023-04-16T10:54:10.381Z,17.10
2023-04-16T10:56:38.862Z,17.20
2023-04-16T10:59:11.963Z,17.32
2023-04-16T11:01:46.125Z,17.48
2023-04-16T11:04:20.828Z,17.61
2023-04-16T11:07:04.572Z,17.70
2023-04-16T11:09:54.440Z,17.81
2023-04-16T11:12:44.987Z,17.92
2023-04-16T11:15:19.624Z,18.03
2023-04-16T11:17:52.061Z,18.09
2023-04-16T11:20:29.099Z,18.02
2023-04-16T11:22:58.275Z,17.95
2023-04-16T11:25:34.469Z,17.94
2023-04-16T11:28:03.939Z,18.00
2023-04-16T11:30:37.885Z,18.02
2023-04-16T11:33:09.397Z,18.03
2023-04-16T11:35:41.771Z,18.03
2023-04-16T11:38:10.229Z,18.04
2023-04-16T11:40:42.559Z,18.06
2023-04-16T11:43:15.829Z,18.09
2023-04-16T11:45:57.328Z,18.11
2023-04-16T11:48:25.873Z,18.16
2023-04-16T11:50:58.180Z,18.08
2023-04-16T11:53:27.375Z,17.98
2023-04-16T11:55:55.708Z,18.06
2023-04-16T11:58:24.031Z,18.21
2023-04-16T12:00:58.257Z,18.35
2023-04-16T12:03:47.209Z,18.39
2023-04-16T12:06:15.757Z,18.36
2023-04-16T12:08:44.888Z,18.40
2023-04-16T12:11:13.256Z,18.37
2023-04-16T12:13:41.645Z,18.35
2023-04-16T12:16:19.835Z,18.41
2023-04-16T12:19:03.079Z,18.44
2023-04-16T12:22:00.936Z,18.42
2023-04-16T12:24:32.597Z,18.49
2023-04-16T12:27:03.248Z,18.53
2023-04-16T12:29:32.340Z,18.61
2023-04-16T12:32:02.035Z,18.67
2023-04-16T12:34:48.893Z,18.74
2023-04-16T12:37:18.150Z,18.86
2023-04-16T12:39:48.070Z,18.98
2023-04-16T12:42:16.865Z,19.07
2023-04-16T12:44:47.054Z,19.12
2023-04-16T12:47:15.963Z,19.07
2023-04-16T12:49:45.186Z,19.02
2023-04-16T12:52:13.656Z,19.20
2023-04-16T12:54:42.237Z,19.22
2023-04-16T12:57:12.252Z,19.23
2023-04-16T12:59:40.525Z,19.30
2023-04-16T13:02:09.166Z,19.39
2023-04-16T13:04:38.028Z,19.38
2023-04-16T13:07:06.988Z,19.33
2023-04-16T13:09:37.763Z,19.34
2023-04-16T13:12:08.274Z,19.41
2023-04-16T13:14:37.380Z,19.42
2023-04-16T13:17:06.116Z,19.37
2023-04-16T13:19:34.928Z,19.31
2023-04-16T13:22:04.140Z,19.31
2023-04-16T13:24:33.119Z,19.24
2023-04-16T13:27:01.991Z,19.18
2023-04-16T13:29:31.112Z,19.21
2023-04-16T13:31:59.717Z,19.28
2023-04-16T13:34:28.979Z,19.28
2023-04-16T13:36:57.453Z,19.22
2023-04-16T13:39:26.070Z,19.23
2023-04-16T13:41:54.673Z,19.24
2023-04-16T13:44:23.826Z,19.22
2023-04-16T13:46:53.897Z,19.21
2023-04-16T13:49:23.033Z,19.22
2023-04-16T13:51:51.525Z,19.24
2023-04-16T13:54:19.902Z,19.23
2023-04-16T13:56:51.511Z,19.21
2023-04-16T13:59:20.453Z,19.16
2023-04-16T14:01:48.957Z,19.24
2023-04-16T14:04:17.597Z,19.29
2023-04-16T14:06:46.609Z,19.27
2023-04-16T14:09:15.271Z,19.18
2023-04-16T14:11:43.806Z,19.32
2023-04-16T14:14:12.665Z,19.43
2023-04-16T14:16:41.415Z,19.55
2023-04-16T14:19:11.062Z,19.63
2023-04-16T14:21:39.846Z,19.60
2023-04-16T14:24:09.358Z,19.43
2023-04-16T14:26:37.815Z,19.19
2023-04-16T14:29:07.120Z,19.04
2023-04-16T14:31:35.837Z,18.86
2023-04-16T14:34:04.403Z,18.84
2023-04-16T14:36:33.291Z,18.83
2023-04-16T14:39:02.394Z,18.85
2023-04-16T14:41:31.167Z,18.91
2023-04-16T14:44:00.082Z,18.97
2023-04-16T14:46:28.534Z,19.00
2023-04-16T14:48:57.032Z,19.04
2023-04-16T14:51:27.579Z,19.07
2023-04-16T14:53:56.871Z,19.07
2023-04-16T14:56:26.377Z,19.07
2023-04-16T14:58:55.272Z,19.03
2023-04-16T15:01:24.656Z,19.05
2023-04-16T15:03:57.118Z,19.07
2023-04-16T15:06:26.548Z,19.00
2023-04-16T15:08:54.887Z,19.03
2023-04-16T15:11:23.582Z,19.06
2023-04-16T15:13:52.609Z,19.08
2023-04-16T15:16:21.320Z,19.15
2023-04-16T15:18:50.709Z,19.22
2023-04-16T15:21:19.289Z,19.32
2023-04-16T15:23:47.753Z,19.33
2023-04-16T15:26:16.561Z,19.33
2023-04-16T15:28:45.341Z,19.31
2023-04-16T15:31:13.816Z,19.31
2023-04-16T15:33:42.160Z,19.29
2023-04-16T15:36:11.703Z,19.29
2023-04-16T15:38:40.152Z,19.32
2023-04-16T15:41:10.704Z,19.29
2023-04-16T15:43:40.159Z,19.27
2023-04-16T15:46:09.285Z,19.24
2023-04-16T15:48:37.992Z,19.20
2023-04-16T15:51:06.815Z,19.20
2023-04-16T15:53:35.363Z,19.14
2023-04-16T15:56:03.954Z,19.01
2023-04-16T15:58:32.471Z,18.91
2023-04-16T16:01:01.033Z,18.85
2023-04-16T16:03:32.445Z,18.81
2023-04-16T16:06:06.929Z,18.68
2023-04-16T16:08:42.687Z,18.63
2023-04-16T16:11:15.592Z,18.48
2023-04-16T16:13:45.772Z,18.37
2023-04-16T16:16:15.203Z,18.29
2023-04-16T16:18:48.360Z,18.24
2023-04-16T16:21:17.250Z,18.26
2023-04-16T16:23:47.054Z,18.13
2023-04-16T16:26:15.840Z,17.94
2023-04-16T16:28:45.157Z,17.76
2023-04-16T16:31:13.878Z,17.52
2023-04-16T16:33:43.231Z,17.29
2023-04-16T16:36:12.766Z,17.04
2023-04-16T16:38:42.756Z,16.74
2023-04-16T16:41:11.750Z,16.49
2023-04-16T16:43:40.651Z,16.31
2023-04-16T16:46:10.235Z,16.19
2023-04-16T16:48:39.028Z,16.10
2023-04-16T16:51:10.852Z,15.93
2023-04-16T16:53:39.808Z,15.80
2023-04-16T16:56:08.986Z,15.65
2023-04-16T16:58:38.188Z,15.51
2023-04-16T17:05:01.429Z,15.19
2023-04-16T17:07:55.548Z,15.08
2023-04-16T17:10:39.939Z,14.97
2023-04-16T17:13:09.369Z,14.88
2023-04-16T17:15:39.022Z,14.84
2023-04-16T17:18:08.497Z,14.76
2023-04-16T17:20:37.784Z,14.68
2023-04-16T17:23:07.591Z,14.64
2023-04-16T17:25:37.114Z,14.62
2023-04-16T17:28:08.447Z,14.61
2023-04-16T17:30:39.269Z,14.58
2023-04-16T17:33:08.923Z,14.60
2023-04-16T17:35:42.092Z,14.62
2023-04-16T17:38:17.017Z,14.64
2023-04-16T17:40:46.408Z,14.64
2023-04-16T17:43:15.702Z,14.62
2023-04-16T17:45:45.160Z,14.60
2023-04-16T17:48:16.042Z,14.56
2023-04-16T17:50:46.275Z,14.49
2023-04-16T17:53:15.959Z,14.34
2023-04-16T17:55:56.707Z,14.17
2023-04-16T17:58:28.173Z,14.01
2023-04-16T18:00:58.784Z,13.85
2023-04-16T18:03:33.929Z,13.70
2023-04-16T18:06:05.425Z,13.56
2023-04-16T18:08:39.038Z,13.46
2023-04-16T18:11:10.173Z,13.33
2023-04-16T18:13:41.834Z,13.19
2023-04-16T18:16:17.214Z,13.07
2023-04-16T18:18:46.490Z,12.95
2023-04-16T18:21:15.622Z,12.83
2023-04-16T18:23:48.908Z,12.77
2023-04-16T18:26:22.397Z,12.77
2023-04-16T18:28:53.421Z,12.76
2023-04-16T18:31:23.262Z,12.76
2023-04-16T18:33:58.027Z,12.74
2023-04-16T18:36:27.634Z,12.71
2023-04-16T18:39:01.717Z,12.66
2023-04-16T18:41:31.550Z,12.60
2023-04-16T18:44:01.053Z,12.53
2023-04-16T18:46:30.685Z,12.48
2023-04-16T18:49:00.671Z,12.45
2023-04-16T18:51:30.714Z,12.44
2023-04-16T18:53:59.681Z,12.44
2023-04-16T18:56:31.436Z,12.42
2023-04-16T18:59:00.637Z,12.37
2023-04-16T19:01:29.992Z,12.29
2023-04-16T19:03:59.053Z,12.24
2023-04-16T19:06:29.498Z,12.21
2023-04-16T19:08:58.379Z,12.16
2023-04-16T19:11:27.262Z,12.10
2023-04-16T19:13:57.788Z,12.11
2023-04-16T19:16:29.673Z,12.09
2023-04-16T19:18:58.612Z,12.05
2023-04-16T19:21:28.227Z,12.00
2023-04-16T19:23:56.897Z,11.97
2023-04-16T19:26:27.381Z,11.96
2023-04-16T19:28:56.885Z,11.95
2023-04-16T19:31:26.687Z,11.93
2023-04-16T19:33:58.539Z,11.91
2023-04-16T19:36:27.950Z,11.89
2023-04-16T19:38:56.793Z,11.84
2023-04-16T19:41:26.375Z,11.81
2023-04-16T19:43:55.655Z,11.81
2023-04-16T19:46:26.445Z,11.79
2023-04-16T19:48:56.987Z,11.74
2023-04-16T19:51:27.394Z,11.69
2023-04-16T19:53:56.638Z,11.64
2023-04-16T19:56:25.928Z,11.58
2023-04-16T19:58:56.240Z,11.53
2023-04-16T20:01:25.371Z,11.52
2023-04-16T20:03:55.085Z,11.52
2023-04-16T20:06:24.485Z,11.51
2023-04-16T20:08:53.450Z,11.49
2023-04-16T20:11:22.762Z,11.48
2023-04-16T20:13:51.365Z,11.49
2023-04-16T20:16:24.190Z,11.50
2023-04-16T20:18:54.595Z,11.50
2023-04-16T20:21:24.274Z,11.48
2023-04-16T20:23:53.366Z,11.49
2023-04-16T20:26:24.509Z,11.51
2023-04-16T20:28:53.750Z,11.56
2023-04-16T20:31:23.048Z,11.58
2023-04-16T20:33:51.995Z,11.59
2023-04-16T20:36:21.889Z,11.61
2023-04-16T20:38:53.819Z,11.65
2023-04-16T20:41:25.516Z,11.62
2023-04-16T20:43:54.899Z,11.70
2023-04-16T20:46:30.622Z,11.66
2023-04-16T20:49:04.721Z,11.60
2023-04-16T20:51:34.084Z,11.53
2023-04-16T20:54:04.759Z,11.47
2023-04-16T20:56:34.330Z,11.29
2023-04-16T20:59:14.066Z,11.40
2023-04-16T21:01:44.607Z,11.38
2023-04-16T21:04:18.741Z,11.33
2023-04-16T21:06:51.602Z,11.23
2023-04-16T21:09:22.170Z,11.14
2023-04-16T21:11:55.253Z,11.05
2023-04-16T21:14:25.139Z,11.00
2023-04-16T21:16:54.962Z,10.94
2023-04-16T21:19:23.617Z,10.83
2023-04-16T21:21:52.437Z,10.89
2023-04-16T21:24:21.420Z,10.84
2023-04-16T21:26:49.992Z,10.82
2023-04-16T21:29:21.139Z,10.81
2023-04-16T21:31:49.683Z,10.78
2023-04-16T21:34:21.069Z,10.79
2023-04-16T21:36:52.328Z,10.76
2023-04-16T21:39:31.342Z,10.72
2023-04-16T21:42:00.051Z,10.70
2023-04-16T21:44:28.733Z,10.67
2023-04-16T21:46:57.414Z,10.65
2023-04-16T21:49:28.648Z,10.64
2023-04-16T21:51:59.442Z,10.65
2023-04-16T21:54:28.268Z,10.68
2023-04-16T21:56:58.495Z,10.68
2023-04-16T21:59:27.089Z,10.67
2023-04-16T22:01:56.167Z,10.63
2023-04-16T22:04:26.573Z,10.57
2023-04-16T22:06:57.999Z,10.52
2023-04-16T22:09:26.536Z,10.52
2023-04-16T22:11:57.977Z,10.51
2023-04-16T22:14:26.795Z,10.50
2023-04-16T22:16:56.836Z,10.53
2023-04-16T22:19:28.379Z,10.58
2023-04-16T22:21:57.442Z,10.60
2023-04-16T22:24:28.299Z,10.59
2023-04-16T22:26:57.396Z,10.52
2023-04-16T22:29:26.674Z,10.45
2023-04-16T22:31:55.698Z,10.39
2023-04-16T22:34:24.661Z,10.35
2023-04-16T22:36:56.564Z,10.35
2023-04-16T22:39:25.754Z,10.34
2023-04-16T22:41:54.587Z,10.29
2023-04-16T22:44:23.405Z,10.20
2023-04-16T22:47:06.110Z,10.11
2023-04-16T22:49:35.206Z,9.98
2023-04-16T22:52:03.952Z,9.87
2023-04-16T22:54:37.795Z,9.79
2023-04-16T22:57:06.382Z,9.72
2023-04-16T22:59:34.798Z,9.69
2023-04-16T23:02:03.516Z,9.67
2023-04-16T23:04:33.048Z,9.65
2023-04-16T23:07:10.956Z,9.64
2023-04-16T23:09:44.579Z,9.63
2023-04-16T23:12:16.018Z,9.66
2023-04-16T23:14:46.213Z,9.72
2023-04-16T23:17:20.278Z,9.79
2023-04-16T23:19:51.615Z,9.84
2023-04-16T23:22:20.473Z,9.86
2023-04-16T23:24:49.275Z,9.90
2023-04-16T23:27:32.700Z,9.94
2023-04-16T23:30:01.564Z,9.93
2023-04-16T23:32:30.602Z,9.93
2023-04-16T23:35:02.361Z,9.91
2023-04-16T23:37:36.376Z,9.85
2023-04-16T23:40:08.360Z,9.89
2023-04-16T23:42:37.110Z,9.90
2023-04-16T23:45:12.460Z,9.93
2023-04-16T23:47:44.705Z,9.95
2023-04-16T23:50:16.064Z,9.95
2023-04-16T23:52:44.877Z,9.96
2023-04-16T23:55:18.738Z,9.98
2023-04-16T23:57:47.857Z,9.97
